sensor_id;sensor_type;location;lat;lon;timestamp;P1;durP1;ratioP1;P2;durP2;ratioP2
1533;SDS011;760;48.822;9.304;2022-10-30T04:05:17;5.47;;;4.27;;
1533;SDS011;760;48.822;9.304;2022-10-30T04:07:45;6.60;;;4.33;;
1533;SDS011;760;48.822;9.304;2022-10-30T04:10:11;5.57;;;3.40;;
1533;SDS011;760;48.822;9.304;2022-10-30T04:12:38;6.77;;;3.47;;
1533;SDS011;760;48.822;9.304;2022-10-30T04:15:04;5.60;;;3.97;;
1533;SDS011;760;48.822;9.304;2022-10-30T04:17:32;6.53;;;5.70;;
1533;SDS011;760;48.822;9.304;2022-10-30T04:19:58;6.10;;;3.50;;
1533;SDS011;760;48.822;9.304;2022-10-30T04:22:23;7.07;;;4.33;;
1533;SDS011;760;48.822;9.304;2022-10-30T04:24:49;4.93;;;4.47;;
1533;SDS011;760;48.822;9.304;2022-10-30T04:27:15;7.53;;;3.80;;
1533;SDS011;760;48.822;9.304;2022-10-30T04:29:41;6.07;;;4.13;;
1533;SDS011;760;48.822;9.304;2022-10-30T04:32:07;5.23;;;4.20;;
1533;SDS011;760;48.822;9.304;2022-10-30T04:34:33;7.00;;;4.07;;
1533;SDS011;760;48.822;9.304;2022-10-30T04:36:59;3.47;;;3.00;;
1533;SDS011;760;48.822;9.304;2022-10-30T04:39:25;4.07;;;3.73;;
1533;SDS011;760;48.822;9.304;2022-10-30T04:41:50;5.50;;;3.80;;
1533;SDS011;760;48.822;9.304;2022-10-30T04:44:16;8.13;;;4.10;;
1533;SDS011;760;48.822;9.304;2022-10-30T04:46:42;5.90;;;3.67;;
1533;SDS011;760;48.822;9.304;2022-10-30T04:49:07;4.93;;;3.80;;
1533;SDS011;760;48.822;9.304;2022-10-30T04:51:33;5.33;;;3.87;;
1533;SDS011;760;48.822;9.304;2022-10-30T04:53:58;3.63;;;3.30;;
1533;SDS011;760;48.822;9.304;2022-10-30T04:56:24;5.10;;;4.43;;
1533;SDS011;760;48.822;9.304;2022-10-30T04:58:50;4.97;;;3.60;;
1533;SDS011;760;48.822;9.304;2022-10-30T05:01:16;4.27;;;3.87;;
1533;SDS011;760;48.822;9.304;2022-10-30T05:03:42;13.70;;;4.37;;
1533;SDS011;760;48.822;9.304;2022-10-30T05:06:21;4.40;;;3.70;;
1533;SDS011;760;48.822;9.304;2022-10-30T05:08:48;4.70;;;3.97;;
1533;SDS011;760;48.822;9.304;2022-10-30T05:11:15;3.47;;;3.17;;
1533;SDS011;760;48.822;9.304;2022-10-30T05:13:41;4.03;;;3.63;;
1533;SDS011;760;48.822;9.304;2022-10-30T05:16:06;5.47;;;4.03;;
1533;SDS011;760;48.822;9.304;2022-10-30T05:18:32;7.67;;;4.97;;
1533;SDS011;760;48.822;9.304;2022-10-30T05:20:58;10.13;;;3.70;;
1533;SDS011;760;48.822;9.304;2022-10-30T05:23:23;8.60;;;3.63;;
1533;SDS011;760;48.822;9.304;2022-10-30T05:25:49;3.30;;;3.00;;
1533;SDS011;760;48.822;9.304;2022-10-30T05:28:15;4.20;;;3.83;;
1533;SDS011;760;48.822;9.304;2022-10-30T05:30:40;3.90;;;3.60;;
1533;SDS011;760;48.822;9.304;2022-10-30T05:33:08;5.90;;;3.40;;
1533;SDS011;760;48.822;9.304;2022-10-30T05:35:35;4.10;;;3.77;;
1533;SDS011;760;48.822;9.304;2022-10-30T05:38:02;4.30;;;3.37;;
1533;SDS011;760;48.822;9.304;2022-10-30T05:40:29;4.07;;;3.30;;
1533;SDS011;760;48.822;9.304;2022-10-30T05:42:55;4.70;;;4.00;;
1533;SDS011;760;48.822;9.304;2022-10-30T05:45:21;4.27;;;3.57;;
1533;SDS011;760;48.822;9.304;2022-10-30T05:47:54;6.60;;;3.47;;
1533;SDS011;760;48.822;9.304;2022-10-30T05:50:20;5.30;;;4.50;;
1533;SDS011;760;48.822;9.304;2022-10-30T05:52:46;5.50;;;3.80;;
1533;SDS011;760;48.822;9.304;2022-10-30T05:55:11;3.70;;;3.50;;
1533;SDS011;760;48.822;9.304;2022-10-30T05:57:37;3.70;;;3.40;;
1533;SDS011;760;48.822;9.304;2022-10-30T06:00:03;4.33;;;3.93;;
1533;SDS011;760;48.822;9.304;2022-10-30T06:02:29;7.30;;;4.00;;
1533;SDS011;760;48.822;9.304;2022-10-30T06:04:55;12.90;;;4.20;;
1533;SDS011;760;48.822;9.304;2022-10-30T06:07:20;4.53;;;3.70;;
1533;SDS011;760;48.822;9.304;2022-10-30T06:09:46;6.30;;;4.47;;
1533;SDS011;760;48.822;9.304;2022-10-30T06:12:12;5.03;;;3.90;;
1533;SDS011;760;48.822;9.304;2022-10-30T06:14:37;4.23;;;3.83;;
1533;SDS011;760;48.822;9.304;2022-10-30T06:17:03;4.20;;;3.80;;
1533;SDS011;760;48.822;9.304;2022-10-30T06:19:28;5.53;;;4.37;;
1533;SDS011;760;48.822;9.304;2022-10-30T06:21:54;4.77;;;3.70;;
1533;SDS011;760;48.822;9.304;2022-10-30T06:24:19;4.90;;;3.50;;
1533;SDS011;760;48.822;9.304;2022-10-30T06:26:45;3.90;;;3.50;;
1533;SDS011;760;48.822;9.304;2022-10-30T06:29:10;4.60;;;3.73;;
1533;SDS011;760;48.822;9.304;2022-10-30T06:31:36;9.90;;;4.50;;
1533;SDS011;760;48.822;9.304;2022-10-30T06:34:02;6.87;;;5.90;;
1533;SDS011;760;48.822;9.304;2022-10-30T06:36:27;4.23;;;3.80;;
1533;SDS011;760;48.822;9.304;2022-10-30T06:38:53;5.33;;;4.33;;
1533;SDS011;760;48.822;9.304;2022-10-30T06:41:18;4.97;;;4.47;;
1533;SDS011;760;48.822;9.304;2022-10-30T06:43:44;6.90;;;6.00;;
1533;SDS011;760;48.822;9.304;2022-10-30T06:46:12;6.10;;;4.90;;
1533;SDS011;760;48.822;9.304;2022-10-30T06:48:38;5.27;;;4.40;;
1533;SDS011;760;48.822;9.304;2022-10-30T06:51:03;6.47;;;4.43;;
1533;SDS011;760;48.822;9.304;2022-10-30T06:53:29;7.17;;;5.10;;
1533;SDS011;760;48.822;9.304;2022-10-30T06:55:58;3.70;;;3.50;;
1533;SDS011;760;48.822;9.304;2022-10-30T06:58:25;6.13;;;4.17;;
1533;SDS011;760;48.822;9.304;2022-10-30T07:00:51;5.03;;;4.53;;
1533;SDS011;760;48.822;9.304;2022-10-30T07:03:17;5.50;;;4.10;;
1533;SDS011;760;48.822;9.304;2022-10-30T07:05:43;6.57;;;4.57;;
1533;SDS011;760;48.822;9.304;2022-10-30T07:08:09;7.53;;;4.87;;
1533;SDS011;760;48.822;9.304;2022-10-30T07:10:35;7.43;;;5.40;;
1533;SDS011;760;48.822;9.304;2022-10-30T07:13:00;7.87;;;3.90;;
1533;SDS011;760;48.822;9.304;2022-10-30T07:15:26;4.10;;;3.47;;
1533;SDS011;760;48.822;9.304;2022-10-30T07:17:55;7.13;;;5.00;;
1533;SDS011;760;48.822;9.304;2022-10-30T07:20:23;7.50;;;4.73;;
1533;SDS011;760;48.822;9.304;2022-10-30T07:22:50;6.23;;;4.30;;
1533;SDS011;760;48.822;9.304;2022-10-30T07:25:15;7.38;;;4.63;;
1533;SDS011;760;48.822;9.304;2022-10-30T07:27:42;4.27;;;3.87;;
1533;SDS011;760;48.822;9.304;2022-10-30T07:30:08;4.40;;;4.00;;
1533;SDS011;760;48.822;9.304;2022-10-30T07:32:35;8.97;;;4.23;;
1533;SDS011;760;48.822;9.304;2022-10-30T07:35:00;8.07;;;3.67;;
1533;SDS011;760;48.822;9.304;2022-10-30T07:37:28;10.73;;;3.97;;
1533;SDS011;760;48.822;9.304;2022-10-30T07:39:53;6.87;;;3.90;;
1533;SDS011;760;48.822;9.304;2022-10-30T07:42:19;3.30;;;3.10;;
1533;SDS011;760;48.822;9.304;2022-10-30T07:44:45;4.30;;;3.90;;
1533;SDS011;760;48.822;9.304;2022-10-30T07:47:10;4.17;;;3.73;;
1533;SDS011;760;48.822;9.304;2022-10-30T07:49:36;4.90;;;4.07;;
1533;SDS011;760;48.822;9.304;2022-10-30T07:52:02;4.83;;;4.17;;
1533;SDS011;760;48.822;9.304;2022-10-30T07:54:27;5.10;;;3.97;;
1533;SDS011;760;48.822;9.304;2022-10-30T07:56:53;6.80;;;5.30;;
1533;SDS011;760;48.822;9.304;2022-10-30T07:59:18;6.80;;;4.10;;
1533;SDS011;760;48.822;9.304;2022-10-30T08:01:44;7.43;;;4.20;;
1533;SDS011;760;48.822;9.304;2022-10-30T08:04:09;5.73;;;3.17;;
1533;SDS011;760;48.822;9.304;2022-10-30T08:06:38;5.90;;;3.70;;
1533;SDS011;760;48.822;9.304;2022-10-30T08:09:03;4.53;;;3.87;;
1533;SDS011;760;48.822;9.304;2022-10-30T08:11:29;7.63;;;3.47;;
1533;SDS011;760;48.822;9.304;2022-10-30T08:13:55;3.50;;;3.30;;
1533;SDS011;760;48.822;9.304;2022-10-30T08:16:21;4.33;;;3.93;;
1533;SDS011;760;48.822;9.304;2022-10-30T08:18:47;12.07;;;4.33;;
1533;SDS011;760;48.822;9.304;2022-10-30T08:21:12;6.50;;;3.37;;
1533;SDS011;760;48.822;9.304;2022-10-30T08:23:38;3.40;;;3.07;;
1533;SDS011;760;48.822;9.304;2022-10-30T08:26:04;7.20;;;3.30;;
1533;SDS011;760;48.822;9.304;2022-10-30T08:28:30;4.60;;;3.83;;
1533;SDS011;760;48.822;9.304;2022-10-30T08:30:56;7.67;;;3.60;;
1533;SDS011;760;48.822;9.304;2022-10-30T08:33:22;4.10;;;3.20;;
1533;SDS011;760;48.822;9.304;2022-10-30T08:35:51;3.47;;;2.87;;
1533;SDS011;760;48.822;9.304;2022-10-30T08:38:18;3.63;;;3.33;;
1533;SDS011;760;48.822;9.304;2022-10-30T08:40:44;6.60;;;3.47;;
1533;SDS011;760;48.822;9.304;2022-10-30T08:43:10;5.87;;;3.73;;
1533;SDS011;760;48.822;9.304;2022-10-30T08:45:36;6.30;;;3.30;;
1533;SDS011;760;48.822;9.304;2022-10-30T08:48:02;4.03;;;2.87;;
1533;SDS011;760;48.822;9.304;2022-10-30T08:50:29;4.07;;;3.40;;
1533;SDS011;760;48.822;9.304;2022-10-30T08:52:59;4.90;;;3.30;;
1533;SDS011;760;48.822;9.304;2022-10-30T08:55:26;6.83;;;4.70;;
1533;SDS011;760;48.822;9.304;2022-10-30T08:57:51;3.63;;;3.33;;
1533;SDS011;760;48.822;9.304;2022-10-30T09:00:17;4.27;;;3.30;;
1533;SDS011;760;48.822;9.304;2022-10-30T09:02:42;9.63;;;3.83;;
1533;SDS011;760;48.822;9.304;2022-10-30T09:05:09;3.00;;;2.70;;
1533;SDS011;760;48.822;9.304;2022-10-30T09:07:35;4.50;;;3.00;;
1533;SDS011;760;48.822;9.304;2022-10-30T09:10:01;5.40;;;3.80;;
1533;SDS011;760;48.822;9.304;2022-10-30T09:12:27;3.40;;;3.00;;
1533;SDS011;760;48.822;9.304;2022-10-30T09:14:53;3.73;;;3.30;;
1533;SDS011;760;48.822;9.304;2022-10-30T09:17:18;4.50;;;2.80;;
1533;SDS011;760;48.822;9.304;2022-10-30T09:19:44;3.90;;;3.47;;
1533;SDS011;760;48.822;9.304;2022-10-30T09:22:09;9.33;;;2.80;;
1533;SDS011;760;48.822;9.304;2022-10-30T09:24:35;6.10;;;2.63;;
1533;SDS011;760;48.822;9.304;2022-10-30T09:27:02;4.03;;;3.03;;
1533;SDS011;760;48.822;9.304;2022-10-30T09:29:28;3.00;;;2.80;;
1533;SDS011;760;48.822;9.304;2022-10-30T09:31:55;4.10;;;3.23;;
1533;SDS011;760;48.822;9.304;2022-10-30T09:34:21;3.03;;;2.30;;
1533;SDS011;760;48.822;9.304;2022-10-30T09:36:47;4.27;;;2.67;;
1533;SDS011;760;48.822;9.304;2022-10-30T09:39:13;3.20;;;2.30;;
1533;SDS011;760;48.822;9.304;2022-10-30T10:00:12;3.70;;;2.70;;
1533;SDS011;760;48.822;9.304;2022-10-30T10:05:28;3.20;;;2.43;;
1533;SDS011;760;48.822;9.304;2022-10-30T10:08:07;2.30;;;2.10;;
1533;SDS011;760;48.822;9.304;2022-10-30T10:10:39;5.20;;;2.70;;
1533;SDS011;760;48.822;9.304;2022-10-30T10:13:13;2.40;;;2.20;;
1533;SDS011;760;48.822;9.304;2022-10-30T10:15:46;7.40;;;2.57;;
1533;SDS011;760;48.822;9.304;2022-10-30T10:18:22;3.20;;;2.90;;
1533;SDS011;760;48.822;9.304;2022-10-30T10:20:54;3.37;;;3.07;;
1533;SDS011;760;48.822;9.304;2022-10-30T10:23:29;2.97;;;2.50;;
1533;SDS011;760;48.822;9.304;2022-10-30T10:25:59;3.97;;;2.97;;
1533;SDS011;760;48.822;9.304;2022-10-30T10:28:47;3.23;;;3.00;;
1533;SDS011;760;48.822;9.304;2022-10-30T10:36:40;5.37;;;2.80;;
1533;SDS011;760;48.822;9.304;2022-10-30T10:39:25;3.50;;;2.50;;
1533;SDS011;760;48.822;9.304;2022-10-30T10:42:28;4.90;;;2.10;;
1533;SDS011;760;48.822;9.304;2022-10-30T10:45:28;3.53;;;2.67;;
1533;SDS011;760;48.822;9.304;2022-10-30T10:50:40;4.17;;;2.90;;
1533;SDS011;760;48.822;9.304;2022-10-30T10:53:34;3.40;;;2.97;;
1533;SDS011;760;48.822;9.304;2022-10-30T10:56:01;4.30;;;3.20;;
1533;SDS011;760;48.822;9.304;2022-10-30T11:04:03;4.33;;;2.90;;
1533;SDS011;760;48.822;9.304;2022-10-30T11:06:36;2.90;;;2.70;;
1533;SDS011;760;48.822;9.304;2022-10-30T11:11:46;3.83;;;2.60;;
1533;SDS011;760;48.822;9.304;2022-10-30T11:14:20;2.60;;;2.40;;
1533;SDS011;760;48.822;9.304;2022-10-30T11:19:26;3.60;;;3.30;;
1533;SDS011;760;48.822;9.304;2022-10-30T11:21:54;3.50;;;2.93;;
1533;SDS011;760;48.822;9.304;2022-10-30T11:24:33;4.00;;;2.40;;
1533;SDS011;760;48.822;9.304;2022-10-30T11:29:57;4.27;;;2.60;;
1533;SDS011;760;48.822;9.304;2022-10-30T11:32:29;3.57;;;3.27;;
1533;SDS011;760;48.822;9.304;2022-10-30T11:37:33;3.73;;;2.20;;
1533;SDS011;760;48.822;9.304;2022-10-30T11:42:35;7.20;;;2.53;;
1533;SDS011;760;48.822;9.304;2022-10-30T11:47:48;9.40;;;3.10;;
1533;SDS011;760;48.822;9.304;2022-10-30T11:50:17;12.10;;;3.23;;
1533;SDS011;760;48.822;9.304;2022-10-30T11:52:46;7.73;;;3.20;;
1533;SDS011;760;48.822;9.304;2022-10-30T11:55:45;2.33;;;2.17;;
1533;SDS011;760;48.822;9.304;2022-10-30T11:58:23;3.40;;;2.27;;
1533;SDS011;760;48.822;9.304;2022-10-30T12:01:01;2.80;;;2.30;;
1533;SDS011;760;48.822;9.304;2022-10-30T12:03:37;7.73;;;2.87;;
1533;SDS011;760;48.822;9.304;2022-10-30T12:08:35;2.97;;;2.77;;
1533;SDS011;760;48.822;9.304;2022-10-30T12:11:02;4.17;;;2.00;;
1533;SDS011;760;48.822;9.304;2022-10-30T12:13:36;3.87;;;2.23;;
1533;SDS011;760;48.822;9.304;2022-10-30T12:16:17;2.43;;;2.23;;
1533;SDS011;760;48.822;9.304;2022-10-30T12:18:59;4.23;;;2.50;;
1533;SDS011;760;48.822;9.304;2022-10-30T12:21:40;3.97;;;2.20;;
1533;SDS011;760;48.822;9.304;2022-10-30T12:24:20;3.53;;;3.20;;
1533;SDS011;760;48.822;9.304;2022-10-30T12:26:51;2.33;;;2.13;;
1533;SDS011;760;48.822;9.304;2022-10-30T12:29:19;9.97;;;6.20;;
1533;SDS011;760;48.822;9.304;2022-10-30T12:34:26;5.60;;;4.43;;
1533;SDS011;760;48.822;9.304;2022-10-30T12:37:02;4.57;;;3.53;;
1533;SDS011;760;48.822;9.304;2022-10-30T12:39:53;4.60;;;2.83;;
1533;SDS011;760;48.822;9.304;2022-10-30T12:45:39;4.10;;;3.20;;
1533;SDS011;760;48.822;9.304;2022-10-30T12:48:24;3.00;;;2.70;;
1533;SDS011;760;48.822;9.304;2022-10-30T12:50:56;3.03;;;2.80;;
1533;SDS011;760;48.822;9.304;2022-10-30T12:53:44;2.90;;;2.37;;
1533;SDS011;760;48.822;9.304;2022-10-30T12:56:15;4.90;;;2.40;;
1533;SDS011;760;48.822;9.304;2022-10-30T13:06:47;2.97;;;2.03;;
1533;SDS011;760;48.822;9.304;2022-10-30T13:09:35;3.43;;;1.67;;
1533;SDS011;760;48.822;9.304;2022-10-30T13:12:13;2.87;;;2.33;;
1533;SDS011;760;48.822;9.304;2022-10-30T13:14:52;4.73;;;2.07;;
1533;SDS011;760;48.822;9.304;2022-10-30T13:17:22;2.83;;;2.60;;
1533;SDS011;760;48.822;9.304;2022-10-30T13:19:47;3.40;;;2.47;;
1533;SDS011;760;48.822;9.304;2022-10-30T13:22:25;6.33;;;2.70;;
1533;SDS011;760;48.822;9.304;2022-10-30T13:28:24;2.80;;;2.10;;
1533;SDS011;760;48.822;9.304;2022-10-30T13:36:46;9.50;;;2.63;;
1533;SDS011;760;48.822;9.304;2022-10-30T13:39:25;4.90;;;2.50;;
1533;SDS011;760;48.822;9.304;2022-10-30T13:47:31;2.70;;;2.50;;
1533;SDS011;760;48.822;9.304;2022-10-30T13:50:25;3.03;;;2.23;;
1533;SDS011;760;48.822;9.304;2022-10-30T13:53:21;5.13;;;2.20;;
1533;SDS011;760;48.822;9.304;2022-10-30T13:55:50;2.53;;;2.30;;
1533;SDS011;760;48.822;9.304;2022-10-30T14:01:24;5.10;;;1.83;;
1533;SDS011;760;48.822;9.304;2022-10-30T14:04:03;5.50;;;2.80;;
1533;SDS011;760;48.822;9.304;2022-10-30T14:06:42;4.00;;;2.60;;
1533;SDS011;760;48.822;9.304;2022-10-30T14:09:32;7.13;;;2.33;;
1533;SDS011;760;48.822;9.304;2022-10-30T14:15:18;4.17;;;2.43;;
1533;SDS011;760;48.822;9.304;2022-10-30T14:20:50;3.83;;;2.60;;
1533;SDS011;760;48.822;9.304;2022-10-30T14:23:21;6.23;;;2.63;;
1533;SDS011;760;48.822;9.304;2022-10-30T14:28:28;3.13;;;2.93;;
1533;SDS011;760;48.822;9.304;2022-10-30T14:31:15;1.90;;;1.70;;
1533;SDS011;760;48.822;9.304;2022-10-30T14:33:47;2.63;;;1.90;;
1533;SDS011;760;48.822;9.304;2022-10-30T14:36:15;3.63;;;2.30;;
1533;SDS011;760;48.822;9.304;2022-10-30T14:38:51;4.27;;;2.27;;
1533;SDS011;760;48.822;9.304;2022-10-30T15:00:27;8.13;;;3.73;;
1533;SDS011;760;48.822;9.304;2022-10-30T15:13:52;5.20;;;4.37;;
1533;SDS011;760;48.822;9.304;2022-10-30T15:16:21;5.13;;;4.17;;
1533;SDS011;760;48.822;9.304;2022-10-30T15:18:54;5.17;;;4.67;;
1533;SDS011;760;48.822;9.304;2022-10-30T15:21:21;5.33;;;3.80;;
1533;SDS011;760;48.822;9.304;2022-10-30T15:23:49;6.60;;;3.60;;
1533;SDS011;760;48.822;9.304;2022-10-30T15:26:20;8.20;;;4.80;;
1533;SDS011;760;48.822;9.304;2022-10-30T15:28:51;5.70;;;4.43;;
1533;SDS011;760;48.822;9.304;2022-10-30T15:31:24;6.77;;;5.00;;
1533;SDS011;760;48.822;9.304;2022-10-30T15:33:51;5.97;;;4.80;;
1533;SDS011;760;48.822;9.304;2022-10-30T15:36:25;6.63;;;3.93;;
1533;SDS011;760;48.822;9.304;2022-10-30T15:39:10;6.73;;;3.97;;
1533;SDS011;760;48.822;9.304;2022-10-30T15:44:14;6.73;;;3.00;;
1533;SDS011;760;48.822;9.304;2022-10-30T15:46:46;5.30;;;3.40;;
1533;SDS011;760;48.822;9.304;2022-10-30T15:49:15;5.13;;;3.37;;
1533;SDS011;760;48.822;9.304;2022-10-30T15:51:44;4.17;;;3.80;;
1533;SDS011;760;48.822;9.304;2022-10-30T15:54:11;4.30;;;3.90;;
1533;SDS011;760;48.822;9.304;2022-10-30T15:56:43;6.50;;;2.97;;
1533;SDS011;760;48.822;9.304;2022-10-30T15:59:29;3.70;;;3.33;;
1533;SDS011;760;48.822;9.304;2022-10-30T16:01:59;3.80;;;2.83;;
1533;SDS011;760;48.822;9.304;2022-10-30T16:04:34;13.93;;;4.10;;
1533;SDS011;760;48.822;9.304;2022-10-30T16:07:01;6.70;;;5.70;;
1533;SDS011;760;48.822;9.304;2022-10-30T16:09:44;9.07;;;4.30;;
1533;SDS011;760;48.822;9.304;2022-10-30T16:12:19;5.63;;;4.67;;
1533;SDS011;760;48.822;9.304;2022-10-30T16:14:55;7.37;;;5.50;;
1533;SDS011;760;48.822;9.304;2022-10-30T16:17:23;9.40;;;7.80;;
1533;SDS011;760;48.822;9.304;2022-10-30T16:19:51;11.00;;;8.77;;
1533;SDS011;760;48.822;9.304;2022-10-30T16:22:23;16.13;;;10.63;;
1533;SDS011;760;48.822;9.304;2022-10-30T16:24:52;11.60;;;8.10;;
1533;SDS011;760;48.822;9.304;2022-10-30T16:27:19;11.63;;;8.10;;
1533;SDS011;760;48.822;9.304;2022-10-30T16:29:47;11.77;;;8.90;;
1533;SDS011;760;48.822;9.304;2022-10-30T16:32:16;13.80;;;8.80;;
1533;SDS011;760;48.822;9.304;2022-10-30T16:34:44;9.27;;;6.23;;
1533;SDS011;760;48.822;9.304;2022-10-30T16:37:15;16.17;;;6.93;;
1533;SDS011;760;48.822;9.304;2022-10-30T16:39:47;11.10;;;7.17;;
1533;SDS011;760;48.822;9.304;2022-10-30T16:42:24;9.93;;;6.90;;
1533;SDS011;760;48.822;9.304;2022-10-30T16:44:52;9.57;;;6.37;;
1533;SDS011;760;48.822;9.304;2022-10-30T16:47:34;10.50;;;7.03;;
1533;SDS011;760;48.822;9.304;2022-10-30T16:50:02;9.10;;;5.70;;
1533;SDS011;760;48.822;9.304;2022-10-30T16:52:32;9.57;;;6.80;;
1533;SDS011;760;48.822;9.304;2022-10-30T16:55:22;12.70;;;6.57;;
1533;SDS011;760;48.822;9.304;2022-10-30T16:57:49;7.17;;;5.93;;
1533;SDS011;760;48.822;9.304;2022-10-30T17:00:19;8.13;;;6.20;;
1533;SDS011;760;48.822;9.304;2022-10-30T17:02:46;6.80;;;5.10;;
1533;SDS011;760;48.822;9.304;2022-10-30T17:05:26;8.50;;;5.40;;
1533;SDS011;760;48.822;9.304;2022-10-30T17:07:54;10.10;;;5.97;;
1533;SDS011;760;48.822;9.304;2022-10-30T17:10:28;7.10;;;4.67;;
1533;SDS011;760;48.822;9.304;2022-10-30T17:16:10;5.43;;;4.70;;
1533;SDS011;760;48.822;9.304;2022-10-30T17:18:42;6.27;;;5.67;;
1533;SDS011;760;48.822;9.304;2022-10-30T17:21:11;7.10;;;5.50;;
1533;SDS011;760;48.822;9.304;2022-10-30T17:23:45;9.30;;;6.60;;
1533;SDS011;760;48.822;9.304;2022-10-30T17:26:13;10.83;;;5.90;;
1533;SDS011;760;48.822;9.304;2022-10-30T17:28:39;8.70;;;7.63;;
1533;SDS011;760;48.822;9.304;2022-10-30T17:34:16;15.30;;;9.83;;
1533;SDS011;760;48.822;9.304;2022-10-30T17:36:44;13.33;;;8.37;;
1533;SDS011;760;48.822;9.304;2022-10-30T17:39:13;12.80;;;7.50;;
1533;SDS011;760;48.822;9.304;2022-10-30T17:41:39;10.90;;;7.70;;
1533;SDS011;760;48.822;9.304;2022-10-30T17:44:05;9.20;;;5.97;;
1533;SDS011;760;48.822;9.304;2022-10-30T17:46:35;7.43;;;6.33;;
1533;SDS011;760;48.822;9.304;2022-10-30T17:49:02;6.07;;;5.23;;
1533;SDS011;760;48.822;9.304;2022-10-30T17:51:29;8.17;;;5.43;;
1533;SDS011;760;48.822;9.304;2022-10-30T17:53:56;9.97;;;5.60;;
1533;SDS011;760;48.822;9.304;2022-10-30T17:56:23;6.50;;;5.43;;
1533;SDS011;760;48.822;9.304;2022-10-30T17:58:54;7.67;;;5.20;;
1533;SDS011;760;48.822;9.304;2022-10-30T18:01:21;5.50;;;4.43;;
1533;SDS011;760;48.822;9.304;2022-10-30T18:03:48;4.23;;;3.53;;
1533;SDS011;760;48.822;9.304;2022-10-30T18:06:16;5.47;;;3.93;;
1533;SDS011;760;48.822;9.304;2022-10-30T18:08:44;6.43;;;4.77;;
1533;SDS011;760;48.822;9.304;2022-10-30T18:11:14;7.47;;;5.30;;
1533;SDS011;760;48.822;9.304;2022-10-30T18:13:41;7.40;;;3.87;;
1533;SDS011;760;48.822;9.304;2022-10-30T18:16:08;3.77;;;3.40;;
1533;SDS011;760;48.822;9.304;2022-10-30T18:18:35;5.57;;;3.63;;
1533;SDS011;760;48.822;9.304;2022-10-30T18:21:01;5.97;;;4.17;;
1533;SDS011;760;48.822;9.304;2022-10-30T18:23:27;4.30;;;3.90;;
1533;SDS011;760;48.822;9.304;2022-10-30T18:25:53;4.37;;;3.97;;
1533;SDS011;760;48.822;9.304;2022-10-30T18:28:18;6.90;;;4.57;;
1533;SDS011;760;48.822;9.304;2022-10-30T18:30:46;4.30;;;3.90;;
1533;SDS011;760;48.822;9.304;2022-10-30T18:33:18;4.87;;;4.37;;
1533;SDS011;760;48.822;9.304;2022-10-30T18:35:44;12.40;;;4.83;;
1533;SDS011;760;48.822;9.304;2022-10-30T18:38:11;4.07;;;3.67;;
1533;SDS011;760;48.822;9.304;2022-10-30T18:40:38;4.87;;;3.80;;
1533;SDS011;760;48.822;9.304;2022-10-30T18:43:04;6.10;;;4.50;;
1533;SDS011;760;48.822;9.304;2022-10-30T18:45:35;9.93;;;4.17;;
1533;SDS011;760;48.822;9.304;2022-10-30T18:48:02;4.67;;;4.03;;
1533;SDS011;760;48.822;9.304;2022-10-30T18:50:28;5.40;;;4.33;;
1533;SDS011;760;48.822;9.304;2022-10-30T18:52:55;6.50;;;4.33;;
1533;SDS011;760;48.822;9.304;2022-10-30T18:55:26;12.03;;;4.03;;
1533;SDS011;760;48.822;9.304;2022-10-30T18:57:53;7.00;;;4.70;;
1533;SDS011;760;48.822;9.304;2022-10-30T19:00:20;12.40;;;5.23;;
1533;SDS011;760;48.822;9.304;2022-10-30T19:02:47;5.97;;;4.67;;
1533;SDS011;760;48.822;9.304;2022-10-30T19:07:53;5.97;;;4.03;;
1533;SDS011;760;48.822;9.304;2022-10-30T19:10:19;6.30;;;4.37;;
1533;SDS011;760;48.822;9.304;2022-10-30T19:12:44;6.17;;;4.60;;
1533;SDS011;760;48.822;9.304;2022-10-30T19:15:17;9.50;;;5.40;;
1533;SDS011;760;48.822;9.304;2022-10-30T19:17:47;5.80;;;4.90;;
1533;SDS011;760;48.822;9.304;2022-10-30T19:20:12;6.10;;;4.97;;
1533;SDS011;760;48.822;9.304;2022-10-30T19:22:38;9.80;;;5.17;;
1533;SDS011;760;48.822;9.304;2022-10-30T19:25:18;7.93;;;5.10;;
1533;SDS011;760;48.822;9.304;2022-10-30T19:27:49;8.23;;;4.90;;
1533;SDS011;760;48.822;9.304;2022-10-30T19:30:15;6.70;;;5.13;;
1533;SDS011;760;48.822;9.304;2022-10-30T19:32:42;6.40;;;5.07;;
1533;SDS011;760;48.822;9.304;2022-10-30T19:35:08;9.37;;;6.67;;
1533;SDS011;760;48.822;9.304;2022-10-30T19:37:34;5.13;;;4.40;;
1533;SDS011;760;48.822;9.304;2022-10-30T19:40:10;8.03;;;4.50;;
1533;SDS011;760;48.822;9.304;2022-10-30T19:42:52;8.93;;;4.80;;
1533;SDS011;760;48.822;9.304;2022-10-30T19:45:19;11.33;;;4.30;;
1533;SDS011;760;48.822;9.304;2022-10-30T19:47:47;8.03;;;5.40;;
1533;SDS011;760;48.822;9.304;2022-10-30T19:50:20;7.23;;;5.17;;
1533;SDS011;760;48.822;9.304;2022-10-30T19:53:07;8.70;;;4.63;;
1533;SDS011;760;48.822;9.304;2022-10-30T19:55:35;4.57;;;4.20;;
1533;SDS011;760;48.822;9.304;2022-10-30T19:58:02;5.50;;;5.00;;
1533;SDS011;760;48.822;9.304;2022-10-30T20:00:33;5.60;;;4.97;;
1533;SDS011;760;48.822;9.304;2022-10-30T20:03:02;5.10;;;4.07;;
1533;SDS011;760;48.822;9.304;2022-10-30T20:05:30;4.90;;;4.40;;
1533;SDS011;760;48.822;9.304;2022-10-30T20:08:05;5.63;;;4.90;;
1533;SDS011;760;48.822;9.304;2022-10-30T20:10:42;5.60;;;4.43;;
1533;SDS011;760;48.822;9.304;2022-10-30T20:13:12;4.83;;;4.30;;
1533;SDS011;760;48.822;9.304;2022-10-30T20:15:38;7.50;;;4.57;;
1533;SDS011;760;48.822;9.304;2022-10-30T20:18:14;5.07;;;4.57;;
1533;SDS011;760;48.822;9.304;2022-10-30T20:20:50;6.57;;;4.47;;
1533;SDS011;760;48.822;9.304;2022-10-30T20:23:18;6.60;;;5.00;;
1533;SDS011;760;48.822;9.304;2022-10-30T20:25:45;10.13;;;5.60;;
1533;SDS011;760;48.822;9.304;2022-10-30T20:28:14;7.10;;;4.70;;
1533;SDS011;760;48.822;9.304;2022-10-30T20:30:51;6.00;;;4.00;;
1533;SDS011;760;48.822;9.304;2022-10-30T20:33:18;6.67;;;5.03;;
1533;SDS011;760;48.822;9.304;2022-10-30T20:35:44;9.70;;;6.33;;
1533;SDS011;760;48.822;9.304;2022-10-30T20:38:14;5.50;;;4.60;;
1533;SDS011;760;48.822;9.304;2022-10-30T20:40:45;9.07;;;5.40;;
1533;SDS011;760;48.822;9.304;2022-10-30T20:43:15;8.97;;;6.17;;
1533;SDS011;760;48.822;9.304;2022-10-30T20:45:43;9.63;;;6.43;;
1533;SDS011;760;48.822;9.304;2022-10-30T20:48:10;5.20;;;4.70;;
1533;SDS011;760;48.822;9.304;2022-10-30T20:50:36;6.77;;;5.33;;
1533;SDS011;760;48.822;9.304;2022-10-30T20:53:02;5.67;;;5.13;;
1533;SDS011;760;48.822;9.304;2022-10-30T20:55:28;7.40;;;4.87;;
1533;SDS011;760;48.822;9.304;2022-10-30T20:57:54;8.50;;;6.50;;
1533;SDS011;760;48.822;9.304;2022-10-30T21:00:19;6.03;;;4.80;;
1533;SDS011;760;48.822;9.304;2022-10-30T21:02:45;8.47;;;6.67;;
1533;SDS011;760;48.822;9.304;2022-10-30T21:05:11;6.93;;;5.93;;
1533;SDS011;760;48.822;9.304;2022-10-30T21:07:37;5.00;;;4.50;;
1533;SDS011;760;48.822;9.304;2022-10-30T21:10:03;5.63;;;5.03;;
1533;SDS011;760;48.822;9.304;2022-10-30T21:12:30;6.37;;;5.67;;
1533;SDS011;760;48.822;9.304;2022-10-30T21:14:56;8.27;;;5.47;;
1533;SDS011;760;48.822;9.304;2022-10-30T21:17:21;6.70;;;4.97;;
1533;SDS011;760;48.822;9.304;2022-10-30T21:19:47;6.17;;;5.50;;
1533;SDS011;760;48.822;9.304;2022-10-30T21:22:12;7.90;;;6.77;;
1533;SDS011;760;48.822;9.304;2022-10-30T21:24:38;13.10;;;5.70;;
1533;SDS011;760;48.822;9.304;2022-10-30T21:27:04;8.60;;;6.70;;
1533;SDS011;760;48.822;9.304;2022-10-30T21:29:30;9.17;;;6.00;;
1533;SDS011;760;48.822;9.304;2022-10-30T21:31:56;7.53;;;6.30;;
1533;SDS011;760;48.822;9.304;2022-10-30T21:34:21;9.30;;;6.00;;
1533;SDS011;760;48.822;9.304;2022-10-30T21:36:47;9.90;;;6.47;;
1533;SDS011;760;48.822;9.304;2022-10-30T21:39:12;8.10;;;6.50;;
1533;SDS011;760;48.822;9.304;2022-10-30T21:41:38;9.60;;;6.50;;
1533;SDS011;760;48.822;9.304;2022-10-30T21:44:03;8.10;;;6.40;;
1533;SDS011;760;48.822;9.304;2022-10-30T21:46:29;7.90;;;6.90;;
1533;SDS011;760;48.822;9.304;2022-10-30T21:49:00;7.47;;;5.90;;
1533;SDS011;760;48.822;9.304;2022-10-30T21:51:26;8.03;;;6.30;;
1533;SDS011;760;48.822;9.304;2022-10-30T21:53:53;7.40;;;6.47;;
1533;SDS011;760;48.822;9.304;2022-10-30T21:56:28;5.93;;;5.30;;
1533;SDS011;760;48.822;9.304;2022-10-30T21:58:54;7.43;;;5.43;;
